createdAt,value
2022-08-10T00:00:56.821Z,1.45
2022-08-10T00:03:23.685Z,1.10
2022-08-10T00:05:52.731Z,1.20
2022-08-10T00:08:20.654Z,1.30
2022-08-10T00:10:52.704Z,1.70
2022-08-10T00:13:19.923Z,1.73
2022-08-10T00:15:54.237Z,1.42
2022-08-10T00:18:34.905Z,1.60
2022-08-10T00:21:07.944Z,1.60
2022-08-10T00:23:35.926Z,1.80
2022-08-10T00:26:03.107Z,1.27
2022-08-10T00:28:30.284Z,1.60
2022-08-10T00:30:57.205Z,1.40
2022-08-10T00:33:24.078Z,1.42
2022-08-10T00:35:51.211Z,1.47
2022-08-10T00:38:17.968Z,1.48
2022-08-10T00:40:46.041Z,1.80
2022-08-10T00:43:12.718Z,1.73
2022-08-10T00:45:39.474Z,1.50
2022-08-10T00:48:06.409Z,1.20
2022-08-10T00:50:33.169Z,1.80
2022-08-10T00:52:59.985Z,1.60
2022-08-10T00:55:27.011Z,1.63
2022-08-10T00:57:55.357Z,1.40
2022-08-10T01:00:23.522Z,1.70
2022-08-10T01:02:50.310Z,1.58
2022-08-10T01:05:17.345Z,1.60
2022-08-10T01:08:10.372Z,1.60
2022-08-10T01:10:55.924Z,1.45
2022-08-10T01:13:36.084Z,1.50
2022-08-10T01:16:23.136Z,1.30
2022-08-10T01:19:13.467Z,1.38
2022-08-10T01:22:17.209Z,1.27
2022-08-10T01:25:11.592Z,1.35
2022-08-10T01:27:54.792Z,1.20
2022-08-10T01:30:23.332Z,1.40
2022-08-10T01:33:09.805Z,1.80
2022-08-10T01:35:56.200Z,1.50
2022-08-10T01:38:37.108Z,1.70
2022-08-10T01:41:08.391Z,1.57
2022-08-10T01:43:40.544Z,1.70
2022-08-10T01:46:08.795Z,1.92
2022-08-10T01:48:50.831Z,1.60
2022-08-10T01:51:39.031Z,1.75
2022-08-10T01:54:13.207Z,1.53
2022-08-10T01:56:45.751Z,1.50
2022-08-10T01:59:24.084Z,1.60
2022-08-10T02:01:56.108Z,1.65
2022-08-10T02:04:25.408Z,1.67
2022-08-10T02:06:54.721Z,1.80
2022-08-10T02:09:28.721Z,1.70
2022-08-10T02:12:08.263Z,1.75
2022-08-10T02:14:52.077Z,1.92
2022-08-10T02:17:57.454Z,1.60
2022-08-10T02:20:15.188Z,1.67
2022-08-10T02:22:44.133Z,1.65
2022-08-10T02:25:42.210Z,2.60
2022-08-10T02:28:01.851Z,1.73
2022-08-10T02:30:30.079Z,1.60
2022-08-10T02:32:58.833Z,1.70
2022-08-10T02:35:27.753Z,1.73
2022-08-10T02:38:03.439Z,2.15
2022-08-10T02:45:03.126Z,2.10
2022-08-10T02:45:29.195Z,2.05
2022-08-10T02:46:24.172Z,2.10
2022-08-10T02:49:19.723Z,1.95
2022-08-10T02:52:07.291Z,1.95
2022-08-10T02:54:47.871Z,1.88
2022-08-10T02:57:20.787Z,1.95
2022-08-10T02:59:53.928Z,1.93
2022-08-10T03:02:51.867Z,2.10
2022-08-10T03:05:21.596Z,2.67
2022-08-10T03:07:55.162Z,1.92
2022-08-10T03:10:27.515Z,1.77
2022-08-10T03:13:00.584Z,2.30
2022-08-10T03:15:32.964Z,1.92
2022-08-10T03:18:00.766Z,2.03
2022-08-10T03:20:37.617Z,2.45
2022-08-10T03:23:13.428Z,2.30
2022-08-10T03:25:52.571Z,2.30
2022-08-10T03:28:24.452Z,2.20
2022-08-10T03:30:51.512Z,2.83
2022-08-10T03:33:19.228Z,2.72
2022-08-10T03:36:40.074Z,2.80
2022-08-10T03:38:33.785Z,2.57
2022-08-10T03:41:04.213Z,2.20
2022-08-10T03:43:31.943Z,3.15
2022-08-10T03:46:00.990Z,3.00
2022-08-10T03:48:44.754Z,2.63
2022-08-10T03:51:16.998Z,2.80
2022-08-10T03:54:03.088Z,2.58
2022-08-10T03:56:32.829Z,3.40
2022-08-10T03:59:01.201Z,3.15
2022-08-10T04:02:44.918Z,2.85
2022-08-10T04:04:22.492Z,3.40
2022-08-10T04:06:54.454Z,3.15
2022-08-10T04:09:53.964Z,3.38
2022-08-10T04:12:16.546Z,2.80
2022-08-10T04:14:49.752Z,3.80
2022-08-10T04:17:18.811Z,3.33
2022-08-10T04:20:10.541Z,3.65
2022-08-10T04:22:39.059Z,3.50
2022-08-10T04:25:07.739Z,3.60
2022-08-10T04:27:34.466Z,3.80
2022-08-10T04:30:01.346Z,3.20
2022-08-10T04:32:31.352Z,3.70
2022-08-10T04:34:58.903Z,3.50
2022-08-10T04:37:27.012Z,4.07
2022-08-10T04:39:54.211Z,3.95
2022-08-10T04:42:21.019Z,3.43
2022-08-10T04:44:47.695Z,4.07
2022-08-10T04:47:16.852Z,4.18
2022-08-10T04:50:00.900Z,4.07
2022-08-10T04:52:29.147Z,4.45
2022-08-10T04:54:55.791Z,4.23
2022-08-10T04:57:22.662Z,4.35
2022-08-10T04:59:49.668Z,4.07
2022-08-10T05:02:29.007Z,4.38
2022-08-10T05:04:58.835Z,4.35
2022-08-10T05:07:25.464Z,4.63
2022-08-10T05:10:02.866Z,5.18
2022-08-10T05:12:36.540Z,4.80
2022-08-10T05:15:10.095Z,5.18
2022-08-10T05:17:37.916Z,5.43
2022-08-10T05:20:07.675Z,5.30
2022-08-10T05:22:37.758Z,5.32
2022-08-10T05:25:06.528Z,5.30
2022-08-10T05:27:33.925Z,4.80
2022-08-10T05:30:01.617Z,5.22
2022-08-10T05:32:57.872Z,5.10
2022-08-10T05:35:21.314Z,4.70
2022-08-10T05:38:09.693Z,4.50
2022-08-10T05:40:38.685Z,4.93
2022-08-10T05:43:05.984Z,4.00
2022-08-10T05:45:32.656Z,4.67
2022-08-10T05:48:54.509Z,4.18
2022-08-10T05:50:46.032Z,3.72
2022-08-10T05:53:39.151Z,3.70
2022-08-10T05:56:00.188Z,4.00
2022-08-10T05:58:26.896Z,3.40
2022-08-10T06:03:48.068Z,4.63
2022-08-10T06:06:21.832Z,3.90
2022-08-10T06:09:00.551Z,4.05
2022-08-10T06:12:25.526Z,4.57
2022-08-10T06:14:38.417Z,3.65
2022-08-10T06:17:15.188Z,4.30
2022-08-10T06:19:52.018Z,3.80
2022-08-10T06:22:20.268Z,3.65
2022-08-10T06:25:18.420Z,4.67
2022-08-10T06:27:38.556Z,4.78
2022-08-10T06:30:20.019Z,3.70
2022-08-10T06:32:54.184Z,5.38
2022-08-10T06:35:22.505Z,4.05
2022-08-10T06:37:52.044Z,3.37
2022-08-10T06:40:19.875Z,4.00
2022-08-10T06:42:51.315Z,3.60
2022-08-10T06:45:22.394Z,3.83
2022-08-10T06:48:05.872Z,3.30
2022-08-10T06:50:55.866Z,2.70
2022-08-10T06:53:53.825Z,3.25
2022-08-10T06:56:37.514Z,3.95
2022-08-10T06:59:27.794Z,3.72
2022-08-10T07:02:05.522Z,3.50
2022-08-10T07:04:49.537Z,3.17
2022-08-10T07:07:23.186Z,4.97
2022-08-10T07:10:02.419Z,3.97
2022-08-10T07:12:31.602Z,3.75
2022-08-10T07:15:00.308Z,4.00
2022-08-10T07:17:28.473Z,3.70
2022-08-10T07:19:59.974Z,3.70
2022-08-10T07:23:08.332Z,3.50
2022-08-10T07:25:36.469Z,3.20
2022-08-10T07:28:03.713Z,4.15
2022-08-10T07:30:43.669Z,4.33
2022-08-10T07:35:59.938Z,3.13
2022-08-10T07:38:33.260Z,3.10
2022-08-10T07:41:02.805Z,3.22
2022-08-10T07:43:45.293Z,4.67
2022-08-10T07:46:15.724Z,4.35
2022-08-10T07:49:15.531Z,3.10
2022-08-10T07:51:54.876Z,2.80
2022-08-10T07:57:31.431Z,2.70
2022-08-10T08:00:35.916Z,2.53
2022-08-10T08:03:03.996Z,2.58
2022-08-10T08:05:57.517Z,3.10
2022-08-10T08:08:32.038Z,3.40
2022-08-10T08:11:02.234Z,4.83
2022-08-10T08:13:30.102Z,3.92
2022-08-10T08:16:20.047Z,3.97
2022-08-10T08:18:54.310Z,2.85
2022-08-10T08:24:14.787Z,3.15
2022-08-10T08:24:32.525Z,3.60
2022-08-10T08:27:05.101Z,3.88
2022-08-10T08:32:23.011Z,3.10
2022-08-10T08:34:55.200Z,3.40
2022-08-10T08:38:30.338Z,2.70
2022-08-10T08:40:33.570Z,2.90
2022-08-10T08:43:18.797Z,3.20
2022-08-10T08:46:06.345Z,3.03
2022-08-10T08:49:01.598Z,3.33
2022-08-10T08:52:09.309Z,3.37
2022-08-10T08:56:04.857Z,3.50
2022-08-10T08:58:11.754Z,3.28
2022-08-10T09:01:00.432Z,3.45
2022-08-10T09:03:45.380Z,2.63
2022-08-10T09:06:53.122Z,3.13
2022-08-10T09:10:15.317Z,3.13
2022-08-10T09:13:26.660Z,3.58
2022-08-10T09:16:13.983Z,3.03
2022-08-10T09:22:37.975Z,2.83
2022-08-10T09:25:47.583Z,2.97
2022-08-10T09:35:39.396Z,2.92
2022-08-10T09:36:24.602Z,2.70
2022-08-10T09:39:06.435Z,2.87
2022-08-10T09:42:17.413Z,2.35
2022-08-10T09:45:04.312Z,2.80
2022-08-10T09:48:03.900Z,3.17
2022-08-10T09:54:59.942Z,2.67
2022-08-10T09:58:04.431Z,2.88
2022-08-10T10:04:32.743Z,2.83
2022-08-10T10:28:44.339Z,2.70
2022-08-10T10:31:58.095Z,2.35
2022-08-10T10:34:44.079Z,2.78
2022-08-10T10:37:14.683Z,4.78
2022-08-10T10:39:54.839Z,3.83
2022-08-10T10:42:57.285Z,3.70
2022-08-10T10:45:27.004Z,3.10
2022-08-10T10:48:17.609Z,2.80
2022-08-10T10:51:10.678Z,2.78
2022-08-10T10:54:06.552Z,2.78
2022-08-10T10:56:50.520Z,2.57
2022-08-10T10:59:53.621Z,2.28
2022-08-10T11:02:48.580Z,2.95
2022-08-10T11:05:15.166Z,2.53
2022-08-10T11:07:45.914Z,2.40
2022-08-10T11:10:32.595Z,1.97
2022-08-10T11:14:25.481Z,2.35
2022-08-10T11:16:16.653Z,2.45
2022-08-10T11:19:02.019Z,2.65
2022-08-10T11:22:16.429Z,2.75
2022-08-10T11:25:06.696Z,2.40
2022-08-10T11:27:44.205Z,2.97
2022-08-10T11:30:20.258Z,2.88
2022-08-10T11:32:47.589Z,2.67
2022-08-10T11:35:28.628Z,2.90
2022-08-10T11:38:28.488Z,2.47
2022-08-10T11:42:10.111Z,2.55
2022-08-10T11:44:50.916Z,2.80
2022-08-10T11:51:07.603Z,2.88
2022-08-10T11:54:12.386Z,2.50
2022-08-10T11:57:53.940Z,2.08
2022-08-10T12:00:18.540Z,3.20
2022-08-10T12:02:57.949Z,2.10
2022-08-10T12:05:52.159Z,2.53
2022-08-10T12:10:02.538Z,2.43
2022-08-10T12:11:07.439Z,2.47
2022-08-10T12:14:10.789Z,2.83
2022-08-10T12:16:40.032Z,2.10
2022-08-10T12:19:18.199Z,3.15
2022-08-10T12:22:05.106Z,2.47
2022-08-10T12:24:46.788Z,2.45
2022-08-10T12:27:13.501Z,3.25
2022-08-10T12:30:01.285Z,2.45
2022-08-10T12:32:37.038Z,2.58
2022-08-10T12:35:21.694Z,3.07
2022-08-10T12:38:16.509Z,3.05
2022-08-10T12:41:05.292Z,3.03
2022-08-10T12:44:07.700Z,2.80
2022-08-10T12:46:54.843Z,2.97
2022-08-10T12:50:23.888Z,3.07
2022-08-10T12:52:42.171Z,2.78
2022-08-10T12:55:11.292Z,2.78
2022-08-10T12:57:40.073Z,3.28
2022-08-10T13:00:10.521Z,2.95
2022-08-10T13:02:48.910Z,3.00
2022-08-10T13:05:16.641Z,2.60
2022-08-10T13:08:25.730Z,2.65
2022-08-10T13:10:33.687Z,3.42
2022-08-10T13:13:01.815Z,3.55
2022-08-10T13:15:49.233Z,3.10
2022-08-10T13:18:23.071Z,2.50
2022-08-10T13:20:55.807Z,2.70
2022-08-10T13:23:28.144Z,2.85
2022-08-10T13:25:58.336Z,2.88
2022-08-10T13:28:40.020Z,3.00
2022-08-10T13:31:16.640Z,2.80
2022-08-10T13:34:41.143Z,3.28
2022-08-10T13:36:49.280Z,2.70
2022-08-10T13:39:20.505Z,3.00
2022-08-10T13:41:49.714Z,2.80
2022-08-10T13:44:33.798Z,2.75
2022-08-10T13:47:00.625Z,2.85
2022-08-10T13:49:30.417Z,3.60
2022-08-10T13:51:58.557Z,2.92
2022-08-10T13:54:29.017Z,3.80
2022-08-10T13:56:56.978Z,3.90
2022-08-10T14:00:35.155Z,3.47
2022-08-10T14:02:21.678Z,3.88
2022-08-10T14:04:48.468Z,2.75
2022-08-10T14:07:16.807Z,2.43
2022-08-10T14:09:47.402Z,3.70
2022-08-10T14:12:14.985Z,4.00
2022-08-10T14:14:42.888Z,3.50
2022-08-10T14:17:11.295Z,3.67
2022-08-10T14:19:43.488Z,3.50
2022-08-10T14:22:16.940Z,3.30
2022-08-10T14:24:46.860Z,3.17
2022-08-10T14:27:17.950Z,2.78
2022-08-10T14:29:49.206Z,3.17
2022-08-10T14:32:18.546Z,2.63
2022-08-10T14:36:16.111Z,2.30
2022-08-10T14:37:39.657Z,2.72
2022-08-10T14:40:15.592Z,3.60
2022-08-10T14:43:04.416Z,3.38
2022-08-10T14:45:36.428Z,2.73
2022-08-10T14:48:07.519Z,2.70
2022-08-10T14:50:34.897Z,2.88
2022-08-10T14:53:14.707Z,3.08
2022-08-10T14:55:58.776Z,3.20
2022-08-10T14:58:35.377Z,3.07
2022-08-10T15:01:04.406Z,3.30
2022-08-10T15:04:01.049Z,3.60
2022-08-10T15:06:30.943Z,2.80
2022-08-10T15:09:19.418Z,3.20
2022-08-10T15:12:11.727Z,2.80
2022-08-10T15:14:42.759Z,3.55
2022-08-10T15:17:13.688Z,3.60
2022-08-10T15:20:02.638Z,2.83
2022-08-10T15:22:40.176Z,3.63
2022-08-10T15:25:19.022Z,2.73
2022-08-10T15:27:54.322Z,3.80
2022-08-10T15:30:29.443Z,2.33
2022-08-10T15:33:21.332Z,2.92
2022-08-10T15:36:24.204Z,3.60
2022-08-10T15:38:59.595Z,2.70
2022-08-10T15:41:59.580Z,3.20
2022-08-10T15:44:49.920Z,3.08
2022-08-10T15:47:45.182Z,2.85
2022-08-10T15:50:28.326Z,2.80
2022-08-10T15:53:04.085Z,2.80
2022-08-10T15:55:41.745Z,3.10
2022-08-10T15:58:45.495Z,3.10
2022-08-10T16:02:14.482Z,3.15
2022-08-10T16:04:11.090Z,2.75
2022-08-10T16:06:50.182Z,2.90
2022-08-10T16:10:22.359Z,2.70
2022-08-10T16:12:10.979Z,3.15
2022-08-10T16:14:39.219Z,3.10
2022-08-10T16:17:10.471Z,3.22
2022-08-10T16:19:46.774Z,2.90
2022-08-10T16:22:35.346Z,3.40
2022-08-10T16:25:03.410Z,3.85
2022-08-10T16:27:32.678Z,3.35
2022-08-10T16:30:03.395Z,3.33
2022-08-10T16:32:34.059Z,3.53
2022-08-10T16:35:04.595Z,2.70
2022-08-10T16:37:58.795Z,3.25
2022-08-10T16:40:27.668Z,2.75
2022-08-10T16:42:56.008Z,3.80
2022-08-10T16:45:42.736Z,2.83
2022-08-10T16:48:11.067Z,3.08
2022-08-10T16:50:42.010Z,3.30
2022-08-10T16:53:13.648Z,3.35
2022-08-10T16:55:48.359Z,3.40
2022-08-10T16:58:21.990Z,3.20
2022-08-10T17:00:50.181Z,3.78
2022-08-10T17:03:22.455Z,3.35
2022-08-10T17:06:15.870Z,3.72
2022-08-10T17:08:49.515Z,4.13
2022-08-10T17:11:21.617Z,2.97
2022-08-10T17:13:49.013Z,2.90
2022-08-10T17:16:17.740Z,3.40
2022-08-10T17:18:46.860Z,3.00
2022-08-10T17:21:22.579Z,3.33
2022-08-10T17:23:55.969Z,3.03
2022-08-10T17:26:36.126Z,2.42
2022-08-10T17:29:57.284Z,2.97
2022-08-10T17:32:33.626Z,3.13
2022-08-10T17:35:21.040Z,3.78
2022-08-10T17:38:00.447Z,3.17
2022-08-10T17:40:28.719Z,2.58
2022-08-10T17:42:56.384Z,3.00
2022-08-10T17:45:47.889Z,3.00
2022-08-10T17:48:15.190Z,3.20
2022-08-10T17:50:43.099Z,4.33
2022-08-10T17:53:20.813Z,2.67
2022-08-10T17:55:53.317Z,2.97
2022-08-10T17:58:21.841Z,2.53
2022-08-10T18:00:55.994Z,3.72
2022-08-10T18:03:26.361Z,2.87
2022-08-10T18:05:55.903Z,3.22
2022-08-10T18:08:28.905Z,3.42
2022-08-10T18:10:57.829Z,3.00
2022-08-10T18:13:27.956Z,2.67
2022-08-10T18:16:21.589Z,3.00
2022-08-10T18:18:50.340Z,2.70
2022-08-10T18:21:30.951Z,2.78
2022-08-10T18:24:14.205Z,2.50
2022-08-10T18:26:47.560Z,3.92
2022-08-10T18:29:28.231Z,2.73
2022-08-10T18:32:02.914Z,2.10
2022-08-10T18:34:32.142Z,3.35
2022-08-10T18:37:00.877Z,2.33
2022-08-10T18:39:32.003Z,2.85
2022-08-10T18:42:14.739Z,2.83
2022-08-10T18:44:47.182Z,2.95
2022-08-10T18:47:19.709Z,3.30
2022-08-10T18:50:10.148Z,2.95
2022-08-10T18:52:39.076Z,2.90
2022-08-10T18:55:24.669Z,3.67
2022-08-10T18:58:30.977Z,2.30
2022-08-10T19:01:09.712Z,2.70
2022-08-10T19:03:59.697Z,2.95
2022-08-10T19:06:51.063Z,3.42
2022-08-10T19:09:55.072Z,2.43
2022-08-10T19:12:45.731Z,2.67
2022-08-10T19:15:42.627Z,2.83
2022-08-10T19:18:32.876Z,2.65
2022-08-10T19:21:16.692Z,3.28
2022-08-10T19:24:15.156Z,2.60
2022-08-10T19:26:54.033Z,2.97
2022-08-10T19:30:09.818Z,3.10
2022-08-10T19:32:45.960Z,2.90
2022-08-10T19:36:03.700Z,2.15
2022-08-10T19:38:33.171Z,2.67
2022-08-10T19:41:09.449Z,2.90
2022-08-10T19:44:00.982Z,2.42
2022-08-10T19:47:25.528Z,2.38
2022-08-10T19:50:06.649Z,2.42
2022-08-10T19:52:50.969Z,3.57
2022-08-10T19:55:26.461Z,3.17
2022-08-10T19:57:57.220Z,2.83
2022-08-10T20:00:33.546Z,3.00
2022-08-10T20:03:16.039Z,2.78
2022-08-10T20:06:19.243Z,2.50
2022-08-10T20:08:59.189Z,2.90
2022-08-10T20:11:53.279Z,2.78
2022-08-10T20:14:34.777Z,2.63
2022-08-10T20:17:09.814Z,3.47
2022-08-10T20:19:53.418Z,2.60
2022-08-10T20:22:28.779Z,2.78
2022-08-10T20:25:02.567Z,3.25
2022-08-10T20:27:58.704Z,2.83
2022-08-10T20:30:32.432Z,2.83
2022-08-10T20:33:17.642Z,2.23
2022-08-10T20:35:53.577Z,2.50
2022-08-10T20:38:30.698Z,2.92
2022-08-10T20:41:18.890Z,2.40
2022-08-10T20:44:27.307Z,3.08
2022-08-10T20:47:03.364Z,2.73
2022-08-10T20:50:08.391Z,3.08
2022-08-10T20:52:36.659Z,2.60
2022-08-10T20:55:08.625Z,2.95
2022-08-10T20:57:57.656Z,2.70
2022-08-10T21:00:37.544Z,2.70
2022-08-10T21:03:33.184Z,2.50
2022-08-10T21:06:41.123Z,3.08
2022-08-10T21:09:24.158Z,2.60
2022-08-10T21:12:24.518Z,3.00
2022-08-10T21:15:19.129Z,2.70
2022-08-10T21:18:03.721Z,2.50
2022-08-10T21:20:45.049Z,2.95
2022-08-10T21:23:16.637Z,2.88
2022-08-10T21:29:11.092Z,3.30
2022-08-10T21:32:03.680Z,2.58
2022-08-10T21:35:00.912Z,2.85
2022-08-10T21:38:05.448Z,2.97
2022-08-10T21:41:17.981Z,2.50
2022-08-10T21:44:25.024Z,2.20
2022-08-10T21:48:07.073Z,2.33
2022-08-10T21:51:14.817Z,2.70
2022-08-10T21:54:18.269Z,2.40
2022-08-10T21:57:15.133Z,2.60
2022-08-10T22:00:11.207Z,2.70
2022-08-10T22:02:59.131Z,2.85
2022-08-10T22:05:52.658Z,2.17
2022-08-10T22:08:44.498Z,2.40
2022-08-10T22:11:37.153Z,2.78
2022-08-10T22:14:25.539Z,2.23
2022-08-10T22:18:10.595Z,2.70
2022-08-10T22:20:27.165Z,2.35
2022-08-10T22:23:27.335Z,2.75
2022-08-10T22:26:35.311Z,2.42
2022-08-10T22:29:42.704Z,2.43
2022-08-10T22:31:28.794Z,2.35
2022-08-10T22:32:48.727Z,2.67
2022-08-10T22:36:03.396Z,2.30
2022-08-10T22:40:05.904Z,2.55
2022-08-10T22:42:59.520Z,2.33
2022-08-10T22:45:48.477Z,2.37
2022-08-10T22:48:34.147Z,2.50
2022-08-10T22:51:20.629Z,2.70
2022-08-10T22:54:30.600Z,2.17
2022-08-10T22:57:18.556Z,2.45
2022-08-10T22:59:45.203Z,2.60
2022-08-10T23:02:18.841Z,2.30
2022-08-10T23:04:52.089Z,2.75
2022-08-10T23:07:26.233Z,2.17
2022-08-10T23:10:00.518Z,2.60
2022-08-10T23:12:36.746Z,2.70
2022-08-10T23:15:25.864Z,2.38
2022-08-10T23:18:15.867Z,2.50
2022-08-10T23:20:44.203Z,2.30
2022-08-10T23:23:23.867Z,2.30
2022-08-10T23:25:57.547Z,2.43
2022-08-10T23:28:58.410Z,2.33
2022-08-10T23:31:14.452Z,2.50
2022-08-10T23:33:42.454Z,2.47
2022-08-10T23:36:32.574Z,2.40
2022-08-10T23:39:25.728Z,2.07
2022-08-10T23:41:57.269Z,2.40
2022-08-10T23:44:25.498Z,2.60
2022-08-10T23:46:53.581Z,2.17
2022-08-10T23:49:21.305Z,2.38
2022-08-10T23:51:56.281Z,2.20
2022-08-10T23:54:24.719Z,2.30
2022-08-10T23:56:56.283Z,2.30
2022-08-10T23:59:24.692Z,3.10
